sensor_id;sensor_type;location;lat;lon;timestamp;temperature;humidity
2497;DHT22;1259;48.306;14.374;2023-06-10T00:01:10;16.30;99.90
2497;DHT22;1259;48.306;14.374;2023-06-10T00:03:37;16.30;99.90
2497;DHT22;1259;48.306;14.374;2023-06-10T00:06:05;16.40;99.90
2497;DHT22;1259;48.306;14.374;2023-06-10T00:08:32;16.30;99.90
2497;DHT22;1259;48.306;14.374;2023-06-10T00:10:58;16.40;99.90
2497;DHT22;1259;48.306;14.374;2023-06-10T00:13:25;16.30;99.90
2497;DHT22;1259;48.306;14.374;2023-06-10T00:15:52;16.30;99.90
2497;DHT22;1259;48.306;14.374;2023-06-10T00:18:19;16.30;99.90
2497;DHT22;1259;48.306;14.374;2023-06-10T00:20:47;16.20;99.90
2497;DHT22;1259;48.306;14.374;2023-06-10T00:23:19;16.30;99.90
2497;DHT22;1259;48.306;14.374;2023-06-10T00:25:46;16.30;99.90
2497;DHT22;1259;48.306;14.374;2023-06-10T00:28:13;16.30;99.90
2497;DHT22;1259;48.306;14.374;2023-06-10T00:30:39;16.30;99.90
2497;DHT22;1259;48.306;14.374;2023-06-10T00:33:06;16.30;99.90
2497;DHT22;1259;48.306;14.374;2023-06-10T00:35:33;16.20;99.90
2497;DHT22;1259;48.306;14.374;2023-06-10T00:37:59;16.20;99.90
2497;DHT22;1259;48.306;14.374;2023-06-10T00:40:27;16.30;99.90
2497;DHT22;1259;48.306;14.374;2023-06-10T00:42:54;16.10;99.90
2497;DHT22;1259;48.306;14.374;2023-06-10T00:45:21;15.90;99.90
2497;DHT22;1259;48.306;14.374;2023-06-10T00:47:47;15.60;99.90
2497;DHT22;1259;48.306;14.374;2023-06-10T00:50:14;15.70;99.90
2497;DHT22;1259;48.306;14.374;2023-06-10T00:52:41;15.80;99.90
2497;DHT22;1259;48.306;14.374;2023-06-10T00:55:09;15.80;99.90
2497;DHT22;1259;48.306;14.374;2023-06-10T00:57:38;15.90;99.90
2497;DHT22;1259;48.306;14.374;2023-06-10T01:00:05;15.80;99.90
2497;DHT22;1259;48.306;14.374;2023-06-10T01:02:34;15.70;99.90
2497;DHT22;1259;48.306;14.374;2023-06-10T01:05:01;15.70;99.90
2497;DHT22;1259;48.306;14.374;2023-06-10T01:07:31;15.80;99.90
2497;DHT22;1259;48.306;14.374;2023-06-10T01:10:02;15.80;99.90
2497;DHT22;1259;48.306;14.374;2023-06-10T01:12:31;15.80;99.90
2497;DHT22;1259;48.306;14.374;2023-06-10T01:15:01;15.70;99.90
2497;DHT22;1259;48.306;14.374;2023-06-10T01:17:29;15.60;99.90
2497;DHT22;1259;48.306;14.374;2023-06-10T01:19:57;15.60;99.90
2497;DHT22;1259;48.306;14.374;2023-06-10T01:22:25;15.60;99.90
2497;DHT22;1259;48.306;14.374;2023-06-10T01:24:53;15.50;99.90
2497;DHT22;1259;48.306;14.374;2023-06-10T01:27:23;15.50;99.90
2497;DHT22;1259;48.306;14.374;2023-06-10T01:29:54;15.50;99.90
2497;DHT22;1259;48.306;14.374;2023-06-10T01:32:23;15.40;99.90
2497;DHT22;1259;48.306;14.374;2023-06-10T01:34:53;15.40;99.90
2497;DHT22;1259;48.306;14.374;2023-06-10T01:37:21;15.40;99.90
2497;DHT22;1259;48.306;14.374;2023-06-10T01:39:52;15.40;99.90
2497;DHT22;1259;48.306;14.374;2023-06-10T01:42:19;15.50;99.90
2497;DHT22;1259;48.306;14.374;2023-06-10T01:44:47;15.40;99.90
2497;DHT22;1259;48.306;14.374;2023-06-10T01:47:13;15.40;99.90
2497;DHT22;1259;48.306;14.374;2023-06-10T01:49:40;15.40;99.90
2497;DHT22;1259;48.306;14.374;2023-06-10T01:52:07;15.40;99.90
2497;DHT22;1259;48.306;14.374;2023-06-10T01:54:33;15.40;99.90
2497;DHT22;1259;48.306;14.374;2023-06-10T01:57:02;15.30;99.90
2497;DHT22;1259;48.306;14.374;2023-06-10T01:59:29;15.40;99.90
2497;DHT22;1259;48.306;14.374;2023-06-10T02:01:55;15.40;99.90
2497;DHT22;1259;48.306;14.374;2023-06-10T02:04:22;15.40;99.90
2497;DHT22;1259;48.306;14.374;2023-06-10T02:06:49;15.40;99.90
2497;DHT22;1259;48.306;14.374;2023-06-10T02:09:15;15.40;99.90
2497;DHT22;1259;48.306;14.374;2023-06-10T02:11:43;15.40;99.90
2497;DHT22;1259;48.306;14.374;2023-06-10T02:14:11;15.40;99.90
2497;DHT22;1259;48.306;14.374;2023-06-10T02:16:38;15.40;99.90
2497;DHT22;1259;48.306;14.374;2023-06-10T02:19:05;15.40;99.90
2497;DHT22;1259;48.306;14.374;2023-06-10T02:21:32;15.40;99.90
2497;DHT22;1259;48.306;14.374;2023-06-10T02:23:59;15.40;99.90
2497;DHT22;1259;48.306;14.374;2023-06-10T02:26:26;15.40;99.90
2497;DHT22;1259;48.306;14.374;2023-06-10T02:28:53;15.40;99.90
2497;DHT22;1259;48.306;14.374;2023-06-10T02:31:21;15.50;99.90
2497;DHT22;1259;48.306;14.374;2023-06-10T02:33:48;15.50;99.90
2497;DHT22;1259;48.306;14.374;2023-06-10T02:36:15;15.50;99.90
2497;DHT22;1259;48.306;14.374;2023-06-10T02:38:42;15.50;99.90
2497;DHT22;1259;48.306;14.374;2023-06-10T02:41:08;15.60;99.90
2497;DHT22;1259;48.306;14.374;2023-06-10T02:43:35;15.60;99.90
2497;DHT22;1259;48.306;14.374;2023-06-10T02:46:02;15.60;99.90
2497;DHT22;1259;48.306;14.374;2023-06-10T02:48:30;15.50;99.90
2497;DHT22;1259;48.306;14.374;2023-06-10T02:50:56;15.50;99.90
2497;DHT22;1259;48.306;14.374;2023-06-10T02:53:23;15.40;99.90
2497;DHT22;1259;48.306;14.374;2023-06-10T02:55:50;15.30;99.90
2497;DHT22;1259;48.306;14.374;2023-06-10T02:58:16;15.20;99.90
2497;DHT22;1259;48.306;14.374;2023-06-10T03:00:45;15.20;99.90
2497;DHT22;1259;48.306;14.374;2023-06-10T03:03:12;15.20;99.90
2497;DHT22;1259;48.306;14.374;2023-06-10T03:05:41;15.10;99.90
2497;DHT22;1259;48.306;14.374;2023-06-10T03:08:07;15.00;99.90
2497;DHT22;1259;48.306;14.374;2023-06-10T03:10:34;15.10;99.90
2497;DHT22;1259;48.306;14.374;2023-06-10T03:13:01;15.20;99.90
2497;DHT22;1259;48.306;14.374;2023-06-10T03:15:28;15.30;99.90
2497;DHT22;1259;48.306;14.374;2023-06-10T03:17:58;15.30;99.90
2497;DHT22;1259;48.306;14.374;2023-06-10T03:20:25;15.00;99.90
2497;DHT22;1259;48.306;14.374;2023-06-10T03:22:54;14.90;99.90
2497;DHT22;1259;48.306;14.374;2023-06-10T03:25:21;14.80;99.90
2497;DHT22;1259;48.306;14.374;2023-06-10T03:27:47;14.70;99.90
2497;DHT22;1259;48.306;14.374;2023-06-10T03:30:14;14.70;99.90
2497;DHT22;1259;48.306;14.374;2023-06-10T03:32:41;14.60;99.90
2497;DHT22;1259;48.306;14.374;2023-06-10T03:35:08;14.50;99.90
2497;DHT22;1259;48.306;14.374;2023-06-10T03:37:35;14.50;99.90
2497;DHT22;1259;48.306;14.374;2023-06-10T03:40:03;14.60;99.90
2497;DHT22;1259;48.306;14.374;2023-06-10T03:42:31;14.60;99.90
2497;DHT22;1259;48.306;14.374;2023-06-10T03:44:57;14.60;99.90
2497;DHT22;1259;48.306;14.374;2023-06-10T03:47:24;14.70;99.90
2497;DHT22;1259;48.306;14.374;2023-06-10T03:49:51;14.70;99.90
2497;DHT22;1259;48.306;14.374;2023-06-10T03:52:18;14.70;99.90
2497;DHT22;1259;48.306;14.374;2023-06-10T03:54:45;14.80;99.90
2497;DHT22;1259;48.306;14.374;2023-06-10T03:57:13;14.90;99.90
2497;DHT22;1259;48.306;14.374;2023-06-10T03:59:39;14.90;99.90
2497;DHT22;1259;48.306;14.374;2023-06-10T04:02:06;15.00;99.90
2497;DHT22;1259;48.306;14.374;2023-06-10T04:04:34;15.20;99.90
2497;DHT22;1259;48.306;14.374;2023-06-10T04:07:01;15.20;99.90
2497;DHT22;1259;48.306;14.374;2023-06-10T04:09:28;15.10;99.90
2497;DHT22;1259;48.306;14.374;2023-06-10T04:11:55;15.10;99.90
2497;DHT22;1259;48.306;14.374;2023-06-10T04:14:23;15.10;99.90
2497;DHT22;1259;48.306;14.374;2023-06-10T04:16:50;15.10;99.90
2497;DHT22;1259;48.306;14.374;2023-06-10T04:19:16;15.10;99.90
2497;DHT22;1259;48.306;14.374;2023-06-10T04:21:43;15.10;99.90
2497;DHT22;1259;48.306;14.374;2023-06-10T04:24:10;15.20;99.90
2497;DHT22;1259;48.306;14.374;2023-06-10T04:26:36;15.20;99.90
2497;DHT22;1259;48.306;14.374;2023-06-10T04:29:03;15.20;99.90
2497;DHT22;1259;48.306;14.374;2023-06-10T04:31:31;15.30;99.90
2497;DHT22;1259;48.306;14.374;2023-06-10T04:33:59;15.30;99.90
2497;DHT22;1259;48.306;14.374;2023-06-10T04:36:26;15.30;99.90
2497;DHT22;1259;48.306;14.374;2023-06-10T04:38:54;15.30;99.90
2497;DHT22;1259;48.306;14.374;2023-06-10T04:41:21;15.40;99.90
2497;DHT22;1259;48.306;14.374;2023-06-10T04:43:48;15.40;99.90
2497;DHT22;1259;48.306;14.374;2023-06-10T04:46:15;15.50;99.90
2497;DHT22;1259;48.306;14.374;2023-06-10T04:48:43;15.60;99.90
2497;DHT22;1259;48.306;14.374;2023-06-10T04:51:12;15.70;99.90
2497;DHT22;1259;48.306;14.374;2023-06-10T04:53:39;15.80;99.90
2497;DHT22;1259;48.306;14.374;2023-06-10T04:56:05;15.90;99.90
2497;DHT22;1259;48.306;14.374;2023-06-10T04:58:33;16.00;99.90
2497;DHT22;1259;48.306;14.374;2023-06-10T05:00:59;16.00;99.90
2497;DHT22;1259;48.306;14.374;2023-06-10T05:03:27;16.00;99.90
2497;DHT22;1259;48.306;14.374;2023-06-10T05:05:55;16.10;99.90
2497;DHT22;1259;48.306;14.374;2023-06-10T05:08:22;16.10;99.90
2497;DHT22;1259;48.306;14.374;2023-06-10T05:10:48;16.10;99.90
2497;DHT22;1259;48.306;14.374;2023-06-10T05:15:43;16.20;99.90
2497;DHT22;1259;48.306;14.374;2023-06-10T05:18:10;16.20;99.90
2497;DHT22;1259;48.306;14.374;2023-06-10T05:20:37;16.20;99.90
2497;DHT22;1259;48.306;14.374;2023-06-10T05:23:05;16.20;99.90
2497;DHT22;1259;48.306;14.374;2023-06-10T05:25:32;16.20;99.90
2497;DHT22;1259;48.306;14.374;2023-06-10T05:27:59;16.30;99.90
2497;DHT22;1259;48.306;14.374;2023-06-10T05:30:25;16.30;99.90
2497;DHT22;1259;48.306;14.374;2023-06-10T05:32:52;16.40;99.90
2497;DHT22;1259;48.306;14.374;2023-06-10T05:35:19;16.50;99.90
2497;DHT22;1259;48.306;14.374;2023-06-10T05:37:46;16.40;99.90
2497;DHT22;1259;48.306;14.374;2023-06-10T05:40:14;16.50;99.90
2497;DHT22;1259;48.306;14.374;2023-06-10T05:42:41;16.60;99.90
2497;DHT22;1259;48.306;14.374;2023-06-10T05:45:08;16.60;99.90
2497;DHT22;1259;48.306;14.374;2023-06-10T05:47:35;16.70;99.90
2497;DHT22;1259;48.306;14.374;2023-06-10T05:50:01;16.80;99.90
2497;DHT22;1259;48.306;14.374;2023-06-10T05:52:32;16.70;99.90
2497;DHT22;1259;48.306;14.374;2023-06-10T05:54:59;16.70;99.90
2497;DHT22;1259;48.306;14.374;2023-06-10T05:57:27;16.80;99.90
2497;DHT22;1259;48.306;14.374;2023-06-10T05:59:53;16.80;99.90
2497;DHT22;1259;48.306;14.374;2023-06-10T06:02:20;16.80;99.90
2497;DHT22;1259;48.306;14.374;2023-06-10T06:04:47;16.90;99.90
2497;DHT22;1259;48.306;14.374;2023-06-10T06:07:14;17.00;99.90
2497;DHT22;1259;48.306;14.374;2023-06-10T06:09:40;16.90;99.90
2497;DHT22;1259;48.306;14.374;2023-06-10T06:12:08;16.90;99.90
2497;DHT22;1259;48.306;14.374;2023-06-10T06:14:38;16.80;99.90
2497;DHT22;1259;48.306;14.374;2023-06-10T06:17:05;16.80;99.90
2497;DHT22;1259;48.306;14.374;2023-06-10T06:19:32;16.80;99.90
2497;DHT22;1259;48.306;14.374;2023-06-10T06:21:58;16.90;99.90
2497;DHT22;1259;48.306;14.374;2023-06-10T06:24:25;17.00;99.90
2497;DHT22;1259;48.306;14.374;2023-06-10T06:26:52;17.00;99.90
2497;DHT22;1259;48.306;14.374;2023-06-10T06:29:19;17.00;99.90
2497;DHT22;1259;48.306;14.374;2023-06-10T06:31:47;17.10;99.90
2497;DHT22;1259;48.306;14.374;2023-06-10T06:34:13;17.10;99.90
2497;DHT22;1259;48.306;14.374;2023-06-10T06:36:40;17.20;99.90
2497;DHT22;1259;48.306;14.374;2023-06-10T06:39:07;17.20;99.90
2497;DHT22;1259;48.306;14.374;2023-06-10T06:41:33;17.30;99.90
2497;DHT22;1259;48.306;14.374;2023-06-10T06:44:00;17.30;99.90
2497;DHT22;1259;48.306;14.374;2023-06-10T06:46:28;17.40;99.90
2497;DHT22;1259;48.306;14.374;2023-06-10T06:48:56;17.40;99.90
2497;DHT22;1259;48.306;14.374;2023-06-10T06:51:22;17.40;99.90
2497;DHT22;1259;48.306;14.374;2023-06-10T06:53:49;17.50;99.90
2497;DHT22;1259;48.306;14.374;2023-06-10T06:56:16;17.80;99.90
2497;DHT22;1259;48.306;14.374;2023-06-10T06:58:43;18.10;99.90
2497;DHT22;1259;48.306;14.374;2023-06-10T07:01:10;18.20;99.90
2497;DHT22;1259;48.306;14.374;2023-06-10T07:03:36;18.20;99.90
2497;DHT22;1259;48.306;14.374;2023-06-10T07:06:04;18.30;99.90
2497;DHT22;1259;48.306;14.374;2023-06-10T07:08:31;18.40;99.90
2497;DHT22;1259;48.306;14.374;2023-06-10T07:10:58;18.50;99.90
2497;DHT22;1259;48.306;14.374;2023-06-10T07:13:24;18.30;99.90
2497;DHT22;1259;48.306;14.374;2023-06-10T07:15:51;18.10;99.90
2497;DHT22;1259;48.306;14.374;2023-06-10T07:18:18;18.10;99.90
2497;DHT22;1259;48.306;14.374;2023-06-10T07:20:44;18.00;99.90
2497;DHT22;1259;48.306;14.374;2023-06-10T07:23:12;18.30;99.90
2497;DHT22;1259;48.306;14.374;2023-06-10T07:25:41;18.50;99.90
2497;DHT22;1259;48.306;14.374;2023-06-10T07:28:08;18.60;99.90
2497;DHT22;1259;48.306;14.374;2023-06-10T07:30:35;18.80;99.90
2497;DHT22;1259;48.306;14.374;2023-06-10T07:33:01;18.80;99.90
2497;DHT22;1259;48.306;14.374;2023-06-10T07:35:28;18.90;99.90
2497;DHT22;1259;48.306;14.374;2023-06-10T07:37:55;18.90;99.90
2497;DHT22;1259;48.306;14.374;2023-06-10T07:40:23;19.20;99.90
2497;DHT22;1259;48.306;14.374;2023-06-10T07:42:50;19.30;99.90
2497;DHT22;1259;48.306;14.374;2023-06-10T07:45:18;19.60;99.90
2497;DHT22;1259;48.306;14.374;2023-06-10T07:47:45;19.70;99.90
2497;DHT22;1259;48.306;14.374;2023-06-10T07:50:11;19.80;99.90
2497;DHT22;1259;48.306;14.374;2023-06-10T07:52:38;19.90;99.90
2497;DHT22;1259;48.306;14.374;2023-06-10T07:55:05;20.20;99.90
2497;DHT22;1259;48.306;14.374;2023-06-10T07:57:33;20.70;99.90
2497;DHT22;1259;48.306;14.374;2023-06-10T08:00:02;21.20;99.90
2497;DHT22;1259;48.306;14.374;2023-06-10T08:02:29;21.50;99.90
2497;DHT22;1259;48.306;14.374;2023-06-10T08:04:56;21.70;99.90
2497;DHT22;1259;48.306;14.374;2023-06-10T08:07:22;20.90;99.90
2497;DHT22;1259;48.306;14.374;2023-06-10T08:09:49;21.10;99.90
2497;DHT22;1259;48.306;14.374;2023-06-10T08:12:16;21.40;99.90
2497;DHT22;1259;48.306;14.374;2023-06-10T08:14:44;21.30;99.90
2497;DHT22;1259;48.306;14.374;2023-06-10T08:17:10;20.90;99.90
2497;DHT22;1259;48.306;14.374;2023-06-10T08:19:37;21.00;99.90
2497;DHT22;1259;48.306;14.374;2023-06-10T08:22:04;21.20;99.90
2497;DHT22;1259;48.306;14.374;2023-06-10T08:24:31;21.60;99.90
2497;DHT22;1259;48.306;14.374;2023-06-10T08:26:57;21.70;99.90
2497;DHT22;1259;48.306;14.374;2023-06-10T08:29:24;21.70;99.90
2497;DHT22;1259;48.306;14.374;2023-06-10T08:31:53;21.30;99.90
2497;DHT22;1259;48.306;14.374;2023-06-10T08:34:19;21.50;99.90
2497;DHT22;1259;48.306;14.374;2023-06-10T08:36:46;21.10;99.90
2497;DHT22;1259;48.306;14.374;2023-06-10T08:39:13;21.20;99.90
2497;DHT22;1259;48.306;14.374;2023-06-10T08:41:42;21.40;99.90
2497;DHT22;1259;48.306;14.374;2023-06-10T08:44:10;21.90;99.90
2497;DHT22;1259;48.306;14.374;2023-06-10T08:46:39;22.20;99.90
2497;DHT22;1259;48.306;14.374;2023-06-10T08:49:10;22.20;99.90
2497;DHT22;1259;48.306;14.374;2023-06-10T08:51:37;21.80;99.90
2497;DHT22;1259;48.306;14.374;2023-06-10T08:54:05;21.50;99.90
2497;DHT22;1259;48.306;14.374;2023-06-10T08:56:36;21.70;99.90
2497;DHT22;1259;48.306;14.374;2023-06-10T08:59:05;21.80;99.90
2497;DHT22;1259;48.306;14.374;2023-06-10T09:01:32;21.60;99.90
2497;DHT22;1259;48.306;14.374;2023-06-10T09:03:59;21.80;99.90
2497;DHT22;1259;48.306;14.374;2023-06-10T09:06:27;22.10;99.90
2497;DHT22;1259;48.306;14.374;2023-06-10T09:08:54;22.10;99.90
2497;DHT22;1259;48.306;14.374;2023-06-10T09:11:21;21.60;99.90
2497;DHT22;1259;48.306;14.374;2023-06-10T09:13:48;21.70;99.90
2497;DHT22;1259;48.306;14.374;2023-06-10T09:16:14;21.90;99.90
2497;DHT22;1259;48.306;14.374;2023-06-10T09:18:41;21.70;99.90
2497;DHT22;1259;48.306;14.374;2023-06-10T09:21:08;21.30;99.90
2497;DHT22;1259;48.306;14.374;2023-06-10T09:23:36;21.50;99.90
2497;DHT22;1259;48.306;14.374;2023-06-10T09:26:07;21.80;99.90
2497;DHT22;1259;48.306;14.374;2023-06-10T09:28:35;21.80;99.90
2497;DHT22;1259;48.306;14.374;2023-06-10T09:31:02;21.80;99.90
2497;DHT22;1259;48.306;14.374;2023-06-10T09:33:29;21.90;99.90
2497;DHT22;1259;48.306;14.374;2023-06-10T09:35:56;22.10;99.90
2497;DHT22;1259;48.306;14.374;2023-06-10T09:38:29;22.40;99.90
2497;DHT22;1259;48.306;14.374;2023-06-10T09:40:57;22.60;99.90
2497;DHT22;1259;48.306;14.374;2023-06-10T09:43:38;22.80;99.90
2497;DHT22;1259;48.306;14.374;2023-06-10T09:46:04;23.20;99.90
2497;DHT22;1259;48.306;14.374;2023-06-10T09:48:34;23.30;99.90
2497;DHT22;1259;48.306;14.374;2023-06-10T09:51:00;23.40;99.90
2497;DHT22;1259;48.306;14.374;2023-06-10T09:53:27;23.60;99.90
2497;DHT22;1259;48.306;14.374;2023-06-10T09:55:57;23.50;99.90
2497;DHT22;1259;48.306;14.374;2023-06-10T09:58:33;23.50;99.90
2497;DHT22;1259;48.306;14.374;2023-06-10T10:01:00;23.30;99.90
2497;DHT22;1259;48.306;14.374;2023-06-10T10:03:30;22.70;99.90
2497;DHT22;1259;48.306;14.374;2023-06-10T10:05:57;23.10;99.90
2497;DHT22;1259;48.306;14.374;2023-06-10T10:08:24;23.60;99.90
2497;DHT22;1259;48.306;14.374;2023-06-10T10:10:51;23.20;99.90
2497;DHT22;1259;48.306;14.374;2023-06-10T10:13:19;23.40;99.90
2497;DHT22;1259;48.306;14.374;2023-06-10T10:15:45;23.80;99.90
2497;DHT22;1259;48.306;14.374;2023-06-10T10:18:14;24.00;99.90
2497;DHT22;1259;48.306;14.374;2023-06-10T10:20:45;23.90;99.90
2497;DHT22;1259;48.306;14.374;2023-06-10T10:23:13;23.90;99.90
2497;DHT22;1259;48.306;14.374;2023-06-10T10:25:40;23.60;99.90
2497;DHT22;1259;48.306;14.374;2023-06-10T10:28:09;23.60;99.90
2497;DHT22;1259;48.306;14.374;2023-06-10T10:30:39;23.70;99.90
2497;DHT22;1259;48.306;14.374;2023-06-10T10:33:06;23.60;99.90
2497;DHT22;1259;48.306;14.374;2023-06-10T10:35:35;23.20;99.90
2497;DHT22;1259;48.306;14.374;2023-06-10T10:38:02;22.90;99.90
2497;DHT22;1259;48.306;14.374;2023-06-10T10:40:30;22.00;99.90
2497;DHT22;1259;48.306;14.374;2023-06-10T10:42:58;21.70;99.90
2497;DHT22;1259;48.306;14.374;2023-06-10T10:45:25;21.20;99.90
2497;DHT22;1259;48.306;14.374;2023-06-10T10:47:55;20.40;99.90
2497;DHT22;1259;48.306;14.374;2023-06-10T10:50:22;19.90;99.90
2497;DHT22;1259;48.306;14.374;2023-06-10T10:52:53;20.00;99.90
2497;DHT22;1259;48.306;14.374;2023-06-10T10:55:21;20.00;99.90
2497;DHT22;1259;48.306;14.374;2023-06-10T10:57:55;20.20;99.90
2497;DHT22;1259;48.306;14.374;2023-06-10T11:00:28;20.50;99.90
2497;DHT22;1259;48.306;14.374;2023-06-10T11:03:04;20.60;99.90
2497;DHT22;1259;48.306;14.374;2023-06-10T11:05:32;20.20;99.90
2497;DHT22;1259;48.306;14.374;2023-06-10T11:07:59;20.60;99.90
2497;DHT22;1259;48.306;14.374;2023-06-10T11:10:29;20.80;99.90
2497;DHT22;1259;48.306;14.374;2023-06-10T11:12:56;20.80;99.90
2497;DHT22;1259;48.306;14.374;2023-06-10T11:15:23;20.60;99.90
2497;DHT22;1259;48.306;14.374;2023-06-10T11:23:32;20.60;99.90
2497;DHT22;1259;48.306;14.374;2023-06-10T11:26:12;20.60;99.90
2497;DHT22;1259;48.306;14.374;2023-06-10T11:28:38;20.80;99.90
2497;DHT22;1259;48.306;14.374;2023-06-10T11:31:05;21.00;99.90
2497;DHT22;1259;48.306;14.374;2023-06-10T11:33:32;21.20;99.90
2497;DHT22;1259;48.306;14.374;2023-06-10T11:35:59;21.40;99.90
2497;DHT22;1259;48.306;14.374;2023-06-10T11:38:25;21.70;99.90
2497;DHT22;1259;48.306;14.374;2023-06-10T11:40:54;21.60;99.90
2497;DHT22;1259;48.306;14.374;2023-06-10T11:43:22;21.70;99.90
2497;DHT22;1259;48.306;14.374;2023-06-10T11:45:53;21.60;99.90
2497;DHT22;1259;48.306;14.374;2023-06-10T11:48:20;21.80;99.90
2497;DHT22;1259;48.306;14.374;2023-06-10T11:50:47;21.80;99.90
2497;DHT22;1259;48.306;14.374;2023-06-10T11:53:13;21.50;99.90
2497;DHT22;1259;48.306;14.374;2023-06-10T11:55:41;21.00;99.90
2497;DHT22;1259;48.306;14.374;2023-06-10T11:58:13;20.90;99.90
2497;DHT22;1259;48.306;14.374;2023-06-10T12:00:43;20.40;99.90
2497;DHT22;1259;48.306;14.374;2023-06-10T12:03:10;20.00;99.90
2497;DHT22;1259;48.306;14.374;2023-06-10T12:05:37;19.90;99.90
2497;DHT22;1259;48.306;14.374;2023-06-10T12:08:10;19.90;99.90
2497;DHT22;1259;48.306;14.374;2023-06-10T12:10:40;20.00;99.90
2497;DHT22;1259;48.306;14.374;2023-06-10T12:13:07;19.90;99.90
2497;DHT22;1259;48.306;14.374;2023-06-10T12:15:35;19.80;99.90
2497;DHT22;1259;48.306;14.374;2023-06-10T12:18:02;19.70;99.90
2497;DHT22;1259;48.306;14.374;2023-06-10T12:20:29;19.60;99.90
2497;DHT22;1259;48.306;14.374;2023-06-10T12:22:58;19.60;99.90
2497;DHT22;1259;48.306;14.374;2023-06-10T12:25:24;19.70;99.90
2497;DHT22;1259;48.306;14.374;2023-06-10T12:27:52;19.70;99.90
2497;DHT22;1259;48.306;14.374;2023-06-10T12:30:19;19.70;99.90
2497;DHT22;1259;48.306;14.374;2023-06-10T12:32:47;19.80;99.90
2497;DHT22;1259;48.306;14.374;2023-06-10T12:35:15;19.70;99.90
2497;DHT22;1259;48.306;14.374;2023-06-10T12:37:43;19.70;99.90
2497;DHT22;1259;48.306;14.374;2023-06-10T12:40:25;19.60;99.90
2497;DHT22;1259;48.306;14.374;2023-06-10T12:42:51;19.50;99.90
2497;DHT22;1259;48.306;14.374;2023-06-10T12:45:25;19.30;99.90
2497;DHT22;1259;48.306;14.374;2023-06-10T12:48:03;19.20;99.90
2497;DHT22;1259;48.306;14.374;2023-06-10T12:50:30;18.70;99.90
2497;DHT22;1259;48.306;14.374;2023-06-10T12:52:56;18.20;99.90
2497;DHT22;1259;48.306;14.374;2023-06-10T12:55:23;17.90;99.90
2497;DHT22;1259;48.306;14.374;2023-06-10T12:57:50;17.50;99.90
2497;DHT22;1259;48.306;14.374;2023-06-10T13:00:18;17.60;99.90
2497;DHT22;1259;48.306;14.374;2023-06-10T13:02:44;17.70;99.90
2497;DHT22;1259;48.306;14.374;2023-06-10T13:05:13;17.40;99.90
2497;DHT22;1259;48.306;14.374;2023-06-10T13:07:39;17.30;99.90
2497;DHT22;1259;48.306;14.374;2023-06-10T13:10:07;17.20;99.90
2497;DHT22;1259;48.306;14.374;2023-06-10T13:12:33;17.00;99.90
2497;DHT22;1259;48.306;14.374;2023-06-10T13:15:01;16.90;99.90
2497;DHT22;1259;48.306;14.374;2023-06-10T13:17:28;16.90;99.90
2497;DHT22;1259;48.306;14.374;2023-06-10T13:19:55;16.70;99.90
2497;DHT22;1259;48.306;14.374;2023-06-10T13:22:23;16.60;99.90
2497;DHT22;1259;48.306;14.374;2023-06-10T13:24:50;16.50;99.90
2497;DHT22;1259;48.306;14.374;2023-06-10T13:27:17;16.50;99.90
2497;DHT22;1259;48.306;14.374;2023-06-10T13:29:44;16.50;99.90
2497;DHT22;1259;48.306;14.374;2023-06-10T13:32:10;16.50;99.90
2497;DHT22;1259;48.306;14.374;2023-06-10T13:34:37;16.80;99.90
2497;DHT22;1259;48.306;14.374;2023-06-10T13:37:04;17.00;99.90
2497;DHT22;1259;48.306;14.374;2023-06-10T13:39:32;17.20;99.90
2497;DHT22;1259;48.306;14.374;2023-06-10T13:41:59;17.30;99.90
2497;DHT22;1259;48.306;14.374;2023-06-10T13:44:26;17.40;99.90
2497;DHT22;1259;48.306;14.374;2023-06-10T13:46:56;17.40;99.90
2497;DHT22;1259;48.306;14.374;2023-06-10T13:49:22;17.40;99.90
2497;DHT22;1259;48.306;14.374;2023-06-10T13:51:49;17.50;99.90
2497;DHT22;1259;48.306;14.374;2023-06-10T13:54:16;17.50;99.90
2497;DHT22;1259;48.306;14.374;2023-06-10T13:56:44;17.70;99.90
2497;DHT22;1259;48.306;14.374;2023-06-10T13:59:10;17.80;99.90
2497;DHT22;1259;48.306;14.374;2023-06-10T14:01:37;17.80;99.90
2497;DHT22;1259;48.306;14.374;2023-06-10T14:04:05;18.00;99.90
2497;DHT22;1259;48.306;14.374;2023-06-10T14:06:32;18.10;99.90
2497;DHT22;1259;48.306;14.374;2023-06-10T14:08:58;18.20;99.90
2497;DHT22;1259;48.306;14.374;2023-06-10T14:11:25;18.40;99.90
2497;DHT22;1259;48.306;14.374;2023-06-10T14:13:53;18.50;99.90
2497;DHT22;1259;48.306;14.374;2023-06-10T14:16:21;18.60;99.90
2497;DHT22;1259;48.306;14.374;2023-06-10T14:18:48;18.70;99.90
2497;DHT22;1259;48.306;14.374;2023-06-10T14:21:16;18.80;99.90
2497;DHT22;1259;48.306;14.374;2023-06-10T14:23:42;18.90;99.90
2497;DHT22;1259;48.306;14.374;2023-06-10T14:26:09;18.90;99.90
2497;DHT22;1259;48.306;14.374;2023-06-10T14:28:36;19.10;99.90
2497;DHT22;1259;48.306;14.374;2023-06-10T14:31:04;19.10;99.90
2497;DHT22;1259;48.306;14.374;2023-06-10T14:33:31;19.20;99.90
2497;DHT22;1259;48.306;14.374;2023-06-10T14:35:57;19.20;99.90
2497;DHT22;1259;48.306;14.374;2023-06-10T14:38:24;19.30;99.90
2497;DHT22;1259;48.306;14.374;2023-06-10T14:40:51;19.30;99.90
2497;DHT22;1259;48.306;14.374;2023-06-10T14:43:17;19.30;99.90
2497;DHT22;1259;48.306;14.374;2023-06-10T14:45:44;19.20;99.90
2497;DHT22;1259;48.306;14.374;2023-06-10T14:48:12;19.20;99.90
2497;DHT22;1259;48.306;14.374;2023-06-10T14:50:39;19.20;99.90
2497;DHT22;1259;48.306;14.374;2023-06-10T14:53:07;19.20;99.90
2497;DHT22;1259;48.306;14.374;2023-06-10T14:55:34;19.20;99.90
2497;DHT22;1259;48.306;14.374;2023-06-10T14:58:00;19.10;99.90
2497;DHT22;1259;48.306;14.374;2023-06-10T15:00:27;19.10;99.90
2497;DHT22;1259;48.306;14.374;2023-06-10T15:02:53;19.10;99.90
2497;DHT22;1259;48.306;14.374;2023-06-10T15:05:24;19.10;99.90
2497;DHT22;1259;48.306;14.374;2023-06-10T15:07:51;19.10;99.90
2497;DHT22;1259;48.306;14.374;2023-06-10T15:10:17;18.90;99.90
2497;DHT22;1259;48.306;14.374;2023-06-10T15:12:46;18.80;99.90
2497;DHT22;1259;48.306;14.374;2023-06-10T15:15:13;18.60;99.90
2497;DHT22;1259;48.306;14.374;2023-06-10T15:17:39;18.40;99.90
2497;DHT22;1259;48.306;14.374;2023-06-10T15:20:06;18.20;99.90
2497;DHT22;1259;48.306;14.374;2023-06-10T15:22:35;18.10;99.90
2497;DHT22;1259;48.306;14.374;2023-06-10T15:25:01;18.20;99.90
2497;DHT22;1259;48.306;14.374;2023-06-10T15:27:28;18.20;99.90
2497;DHT22;1259;48.306;14.374;2023-06-10T15:29:55;18.10;99.90
2497;DHT22;1259;48.306;14.374;2023-06-10T15:32:21;18.00;99.90
2497;DHT22;1259;48.306;14.374;2023-06-10T15:34:48;18.00;99.90
2497;DHT22;1259;48.306;14.374;2023-06-10T15:37:16;18.00;99.90
2497;DHT22;1259;48.306;14.374;2023-06-10T15:39:44;17.90;99.90
2497;DHT22;1259;48.306;14.374;2023-06-10T15:42:11;17.80;99.90
2497;DHT22;1259;48.306;14.374;2023-06-10T15:44:37;17.70;99.90
2497;DHT22;1259;48.306;14.374;2023-06-10T15:47:04;17.60;99.90
2497;DHT22;1259;48.306;14.374;2023-06-10T15:49:31;17.50;99.90
2497;DHT22;1259;48.306;14.374;2023-06-10T15:51:57;17.60;99.90
2497;DHT22;1259;48.306;14.374;2023-06-10T15:54:24;17.60;99.90